createdAt,value
2022-12-18T00:01:19.675Z,95.99512
2022-12-18T00:06:14.605Z,96.01074
2022-12-18T00:11:16.086Z,95.98242
2022-12-18T00:16:15.718Z,96
2022-12-18T00:21:15.673Z,95.91016
2022-12-18T00:26:15.996Z,96.11133
2022-12-18T00:31:16.739Z,96.07129
2022-12-18T00:36:14.979Z,96.15234
2022-12-18T00:41:25.484Z,96.03906
2022-12-18T00:46:14.496Z,96.08789
2022-12-18T00:51:14.105Z,96.42773
2022-12-18T00:56:14.549Z,96.38477
2022-12-18T01:01:14.412Z,96.37988
2022-12-18T01:06:16.650Z,96.38672
2022-12-18T01:11:16.510Z,96.52246
2022-12-18T01:16:16.615Z,96.71973
2022-12-18T01:21:15.295Z,96.82422
2022-12-18T01:26:15.432Z,96.75586
2022-12-18T01:31:21.995Z,96.64941
2022-12-18T01:36:19.204Z,96.66895
2022-12-18T01:41:14.077Z,96.54102
2022-12-18T01:46:14.176Z,96.5127
2022-12-18T01:51:15.051Z,96.60645
2022-12-18T01:56:16.688Z,96.38379
2022-12-18T02:01:14.380Z,96.51953
2022-12-18T02:06:17.603Z,96.45801
2022-12-18T02:11:17.100Z,96.37109
2022-12-18T02:16:18.300Z,96.40137
2022-12-18T02:21:24.191Z,96.35547
2022-12-18T02:26:19.349Z,96.2959
2022-12-18T02:31:16.714Z,96.23535
2022-12-18T02:36:15.622Z,96.38379
2022-12-18T02:41:15.298Z,96.21777
2022-12-18T02:46:28.677Z,96.34766
2022-12-18T02:51:20.324Z,96.3877
2022-12-18T02:56:17.488Z,96.44727
2022-12-18T03:01:21.038Z,96.46875
2022-12-18T03:06:17.311Z,96.40625
2022-12-18T03:11:16.378Z,96.4707
2022-12-18T03:16:16.004Z,96.34863
2022-12-18T03:21:15.250Z,96.49707
2022-12-18T03:26:15.086Z,96.51074
2022-12-18T03:31:15.145Z,96.50586
2022-12-18T03:36:14.334Z,96.50781
2022-12-18T03:41:17.324Z,96.63184
2022-12-18T03:46:17.655Z,96.71875
2022-12-18T03:51:15.740Z,96.54883
2022-12-18T03:56:14.575Z,96.59277
2022-12-18T04:01:16.442Z,96.51465
2022-12-18T04:06:14.778Z,96.53516
2022-12-18T04:11:14.120Z,96.52734
2022-12-18T04:16:14.215Z,96.51172
2022-12-18T04:21:14.796Z,96.50391
2022-12-18T04:26:13.858Z,96.47656
2022-12-18T04:31:14.144Z,96.4248
2022-12-18T04:36:13.994Z,96.5166
2022-12-18T04:41:14.165Z,96.46777
2022-12-18T04:46:14.380Z,96.49121
2022-12-18T04:51:14.077Z,96.33203
2022-12-18T04:56:15.626Z,96.33105
2022-12-18T05:01:15.674Z,96.32031
2022-12-18T05:06:14.194Z,96.18066
2022-12-18T05:11:15.611Z,96.0625
2022-12-18T05:16:14.545Z,95.9541
2022-12-18T05:21:14.115Z,95.80371
2022-12-18T05:26:19.024Z,95.86328
2022-12-18T05:31:14.215Z,95.56836
2022-12-18T05:36:14.580Z,95.56055
2022-12-18T05:41:14.557Z,95.57422
2022-12-18T05:46:17.008Z,95.46582
2022-12-18T05:51:15.500Z,95.39453
2022-12-18T05:56:15.697Z,95.42578
2022-12-18T06:01:18.293Z,95.34863
2022-12-18T06:06:21.908Z,95.28418
2022-12-18T06:11:13.927Z,95.20801
2022-12-18T06:16:14.371Z,95.21875
2022-12-18T06:21:15.159Z,95.1875
2022-12-18T06:26:15.027Z,95.3252
2022-12-18T06:31:14.187Z,95.2666
2022-12-18T06:36:15.435Z,95.2627
2022-12-18T06:41:15.975Z,95.25781
2022-12-18T06:46:14.655Z,95.16309
2022-12-18T06:51:14.047Z,95.14551
2022-12-18T06:56:14.281Z,95.11426
2022-12-18T07:01:15.658Z,95.03516
2022-12-18T07:06:17.047Z,95.13086
2022-12-18T07:11:14.096Z,95.0332
2022-12-18T07:16:20.951Z,95.02246
2022-12-18T07:21:15.493Z,94.94434
2022-12-18T07:26:14.899Z,94.9209
2022-12-18T07:31:15.325Z,94.93848
2022-12-18T07:36:14.710Z,94.87891
2022-12-18T07:41:14.890Z,94.89551
2022-12-18T07:46:15.431Z,94.95313
2022-12-18T07:51:15.184Z,94.8623
2022-12-18T07:56:27.706Z,94.93848
2022-12-18T08:01:14.985Z,94.81543
2022-12-18T08:06:15.009Z,94.84766
2022-12-18T08:11:14.088Z,94.77734
2022-12-18T08:16:14.189Z,94.83594
2022-12-18T08:21:18.885Z,94.80664
2022-12-18T08:26:14.511Z,94.81836
2022-12-18T08:31:14.058Z,94.79297
2022-12-18T08:36:14.595Z,94.8125
2022-12-18T08:41:19.043Z,94.79688
2022-12-18T08:46:16.429Z,94.74316
2022-12-18T08:51:14.268Z,94.73438
2022-12-18T08:56:14.329Z,94.80273
2022-12-18T09:01:15.120Z,94.89453
2022-12-18T09:06:14.035Z,94.86914
2022-12-18T09:11:16.542Z,94.80078
2022-12-18T09:16:14.238Z,94.93848
2022-12-18T09:21:18.747Z,94.84375
2022-12-18T09:26:13.834Z,94.9707
2022-12-18T09:31:18.211Z,95.13184
2022-12-18T09:36:16.103Z,95.20605
2022-12-18T09:41:21.526Z,95.20117
2022-12-18T09:46:16.767Z,95.30078
2022-12-18T09:51:18.387Z,95.28711
2022-12-18T09:56:17.075Z,95.32715
2022-12-18T10:01:17.318Z,95.32031
2022-12-18T10:06:18.800Z,95.44922
2022-12-18T10:11:24.485Z,95.48145
2022-12-18T10:16:18.254Z,95.47168
2022-12-18T10:21:16.712Z,95.46094
2022-12-18T10:26:14.604Z,95.41602
2022-12-18T10:31:19.254Z,95.51367
2022-12-18T10:36:14.489Z,95.50195
2022-12-18T10:41:26.621Z,95.42969
2022-12-18T10:46:19.758Z,95.37598
2022-12-18T10:51:14.125Z,95.1748
2022-12-18T10:56:14.343Z,95.33008
2022-12-18T11:01:16.608Z,95.13184
2022-12-18T11:06:15.872Z,95.31641
2022-12-18T11:11:24.924Z,95.25488
2022-12-18T11:16:22.754Z,95.09668
2022-12-18T11:21:15.978Z,95.32422
2022-12-18T11:26:13.949Z,95.27246
2022-12-18T11:31:37.218Z,95.19043
2022-12-18T11:36:14.545Z,95.40332
2022-12-18T11:41:24.189Z,95.14063
2022-12-18T11:46:19.817Z,95.27051
2022-12-18T11:51:16.502Z,95.18262
2022-12-18T11:56:25.552Z,95.25879
2022-12-18T12:01:21.347Z,95.23242
2022-12-18T12:06:21.950Z,95.1748
2022-12-18T12:11:17.743Z,95.28125
2022-12-18T12:16:20.612Z,95.00586
2022-12-18T12:21:22.081Z,95.31934
2022-12-18T12:26:16.444Z,95.41211
2022-12-18T12:31:22.040Z,95.3623
2022-12-18T12:36:19.340Z,95.35156
2022-12-18T12:41:29.184Z,95.24219
2022-12-18T12:46:15.542Z,95.17285
2022-12-18T12:51:18.673Z,95.05371
2022-12-18T12:56:15.132Z,94.6875
2022-12-18T13:06:17.908Z,94.92773
2022-12-18T13:11:37.951Z,94.69922
2022-12-18T13:13:43.747Z,94.85449
2022-12-18T13:16:15.385Z,94.94434
2022-12-18T13:21:24.540Z,94.60254
2022-12-18T13:26:32.340Z,94.32422
2022-12-18T13:31:13.830Z,94.15723
2022-12-18T13:36:18.471Z,93.88672
2022-12-18T13:41:26.951Z,94.1582
2022-12-18T13:46:23.118Z,94.70996
2022-12-18T13:51:16.158Z,94.10059
2022-12-18T13:56:13.990Z,94.06348
2022-12-18T14:01:20.781Z,93.8877
2022-12-18T14:06:17.290Z,93.78711
2022-12-18T14:11:22.660Z,93.90625
2022-12-18T14:16:22.004Z,93.88965
2022-12-18T14:21:21.783Z,93.8291
2022-12-18T14:26:28.000Z,93.71387
2022-12-18T14:31:27.248Z,93.81543
2022-12-18T14:36:20.550Z,93.92676
2022-12-18T14:41:15.862Z,94.18945
2022-12-18T14:46:23.937Z,94.24707
2022-12-18T14:51:20.499Z,93.90527
2022-12-18T14:56:20.309Z,93.80469
2022-12-18T15:01:23.540Z,93.68164
2022-12-18T15:06:33.561Z,93.6709
2022-12-18T15:11:27.378Z,93.64355
2022-12-18T15:16:16.697Z,93.75195
2022-12-18T15:21:21.226Z,93.6582
2022-12-18T15:26:16.118Z,93.64063
2022-12-18T15:31:26.060Z,93.52637
2022-12-18T15:36:14.698Z,93.39355
2022-12-18T15:41:18.909Z,93.21387
2022-12-18T15:46:15.843Z,93.05762
2022-12-18T15:51:16.844Z,92.69727
2022-12-18T15:56:25.323Z,92.82617
2022-12-18T16:01:15.789Z,92.6377
2022-12-18T16:06:14.220Z,92.37598
2022-12-18T16:11:20.970Z,91.83789
2022-12-18T16:16:13.870Z,91.8916
2022-12-18T16:21:14.110Z,91.78809
2022-12-18T16:26:13.862Z,91.90332
2022-12-18T16:31:16.728Z,91.73633
2022-12-18T16:36:13.885Z,91.7666
2022-12-18T16:41:36.382Z,91.92969
2022-12-18T16:46:14.171Z,91.64551
2022-12-18T16:51:13.898Z,91.60254
2022-12-18T16:56:13.885Z,91.76172
2022-12-18T17:01:15.892Z,91.2998
2022-12-18T17:06:14.076Z,91.30469
2022-12-18T17:11:14.008Z,91.24219
2022-12-18T17:16:14.095Z,91.15625
2022-12-18T17:21:14.963Z,91.6748
2022-12-18T17:26:14.392Z,91.5918
2022-12-18T17:31:23.522Z,91.43652
2022-12-18T17:36:16.845Z,91.4082
2022-12-18T17:41:15.060Z,91.13379
2022-12-18T17:46:13.796Z,91.25391
2022-12-18T17:51:17.741Z,91.25586
2022-12-18T17:56:16.016Z,91.11523
2022-12-18T18:01:16.801Z,91.16699
2022-12-18T18:06:14.215Z,91.12598
2022-12-18T18:11:28.093Z,90.97266
2022-12-18T18:16:14.502Z,90.83301
2022-12-18T18:21:13.854Z,90.82227
2022-12-18T18:26:14.139Z,90.83008
2022-12-18T18:31:14.281Z,90.97266
2022-12-18T18:36:14.780Z,90.85938
2022-12-18T18:41:14.536Z,91.11816
2022-12-18T18:46:22.812Z,91.17188
2022-12-18T18:51:21.770Z,90.88965
2022-12-18T18:56:56.149Z,90.87109
2022-12-18T19:01:15.061Z,90.89063
2022-12-18T19:06:17.039Z,91.01074
2022-12-18T19:11:24.509Z,90.85449
2022-12-18T19:16:13.971Z,90.88281
2022-12-18T19:21:14.218Z,90.93652
2022-12-18T19:26:27.317Z,91.09961
2022-12-18T19:31:17.766Z,91.08789
2022-12-18T19:36:22.591Z,91.13281
2022-12-18T19:41:14.251Z,91.22168
2022-12-18T19:46:15.799Z,90.93555
2022-12-18T19:51:15.334Z,90.97949
2022-12-18T19:56:17.715Z,91.37012
2022-12-18T20:01:16.223Z,91.68848
2022-12-18T20:06:17.978Z,91.99121
2022-12-18T20:11:13.684Z,92.31738
2022-12-18T20:16:13.861Z,92.5625
2022-12-18T20:21:14.191Z,92.7168
2022-12-18T20:26:13.717Z,92.86719
2022-12-18T20:31:15.204Z,93.06055
2022-12-18T20:36:20.103Z,93.52246
2022-12-18T20:41:16.112Z,93.60254
2022-12-18T20:46:14.396Z,93.95605
2022-12-18T20:51:14.704Z,94.16602
2022-12-18T20:56:14.735Z,94.28711
2022-12-18T21:01:14.707Z,94.33691
2022-12-18T21:06:14.049Z,94.65234
2022-12-18T21:11:31.990Z,94.73828
2022-12-18T21:16:13.913Z,95.0166
2022-12-18T21:21:13.878Z,94.98047
2022-12-18T21:26:24.742Z,95.09375
2022-12-18T21:31:13.771Z,95.33789
2022-12-18T21:36:14.288Z,95.62695
2022-12-18T21:41:24.463Z,95.73242
2022-12-18T21:46:14.010Z,95.82031
2022-12-18T21:51:13.840Z,95.82031
2022-12-18T21:56:13.823Z,95.95313
2022-12-18T22:01:13.831Z,96.40332
2022-12-18T22:06:13.823Z,96.59961
2022-12-18T22:11:50.269Z,96.87109
2022-12-18T22:14:23.458Z,96.99805
2022-12-18T22:19:24.575Z,97.12305
2022-12-18T22:24:23.991Z,97.17871
2022-12-18T22:29:35.339Z,97.33691
2022-12-18T22:34:23.485Z,97.7168
2022-12-18T22:39:24.367Z,97.73438
2022-12-18T22:49:24.423Z,98.10059
2022-12-18T22:54:27.005Z,98.12598
2022-12-18T22:59:24.357Z,98.2334
2022-12-18T23:04:23.478Z,98.22266
2022-12-18T23:09:24.397Z,98.53711
2022-12-18T23:14:22.979Z,98.625
2022-12-18T23:19:23.539Z,98.76465
2022-12-18T23:24:24.505Z,98.86328
2022-12-18T23:29:23.182Z,98.94043
2022-12-18T23:34:23.234Z,99.05176
2022-12-18T23:39:30.057Z,99.26172
2022-12-18T23:44:23.844Z,99.28516
2022-12-18T23:49:26.127Z,99.59375
2022-12-18T23:54:33.110Z,99.80664
2022-12-18T23:59:25.567Z,99.85547
